sensor_id;sensor_type;location;lat;lon;timestamp;P1;durP1;ratioP1;P2;durP2;ratioP2
4466;SDS011;2246;42.664;23.278;2023-04-15T00:01:11;12.70;;;5.25;;
4466;SDS011;2246;42.664;23.278;2023-04-15T00:03:43;13.07;;;5.30;;
4466;SDS011;2246;42.664;23.278;2023-04-15T00:06:09;11.95;;;5.50;;
4466;SDS011;2246;42.664;23.278;2023-04-15T00:08:35;13.25;;;5.80;;
4466;SDS011;2246;42.664;23.278;2023-04-15T00:11:01;12.60;;;5.88;;
4466;SDS011;2246;42.664;23.278;2023-04-15T00:15:55;14.90;;;5.68;;
4466;SDS011;2246;42.664;23.278;2023-04-15T00:18:22;19.13;;;6.13;;
4466;SDS011;2246;42.664;23.278;2023-04-15T00:20:49;11.85;;;5.50;;
4466;SDS011;2246;42.664;23.278;2023-04-15T00:23:15;15.32;;;6.30;;
4466;SDS011;2246;42.664;23.278;2023-04-15T00:25:41;14.85;;;5.75;;
4466;SDS011;2246;42.664;23.278;2023-04-15T00:28:07;9.88;;;5.05;;
4466;SDS011;2246;42.664;23.278;2023-04-15T00:30:33;12.32;;;5.43;;
4466;SDS011;2246;42.664;23.278;2023-04-15T00:33:00;13.75;;;5.55;;
4466;SDS011;2246;42.664;23.278;2023-04-15T00:35:28;10.38;;;4.60;;
4466;SDS011;2246;42.664;23.278;2023-04-15T00:37:57;13.23;;;4.85;;
4466;SDS011;2246;42.664;23.278;2023-04-15T00:40:23;8.83;;;4.80;;
4466;SDS011;2246;42.664;23.278;2023-04-15T00:42:53;11.40;;;4.60;;
4466;SDS011;2246;42.664;23.278;2023-04-15T00:45:19;14.82;;;4.53;;
4466;SDS011;2246;42.664;23.278;2023-04-15T00:47:45;13.15;;;4.88;;
4466;SDS011;2246;42.664;23.278;2023-04-15T00:50:12;12.05;;;4.15;;
4466;SDS011;2246;42.664;23.278;2023-04-15T00:52:39;12.27;;;4.60;;
4466;SDS011;2246;42.664;23.278;2023-04-15T00:55:06;9.40;;;4.80;;
4466;SDS011;2246;42.664;23.278;2023-04-15T00:57:32;9.55;;;4.50;;
4466;SDS011;2246;42.664;23.278;2023-04-15T00:59:59;12.98;;;4.20;;
4466;SDS011;2246;42.664;23.278;2023-04-15T01:02:25;11.57;;;5.00;;
4466;SDS011;2246;42.664;23.278;2023-04-15T01:04:52;10.07;;;4.60;;
4466;SDS011;2246;42.664;23.278;2023-04-15T01:07:18;9.25;;;4.75;;
4466;SDS011;2246;42.664;23.278;2023-04-15T01:09:44;10.00;;;4.60;;
4466;SDS011;2246;42.664;23.278;2023-04-15T01:12:13;9.57;;;4.15;;
4466;SDS011;2246;42.664;23.278;2023-04-15T01:14:42;9.40;;;4.65;;
4466;SDS011;2246;42.664;23.278;2023-04-15T01:17:08;13.40;;;4.68;;
4466;SDS011;2246;42.664;23.278;2023-04-15T01:19:37;11.90;;;5.75;;
4466;SDS011;2246;42.664;23.278;2023-04-15T01:22:03;11.55;;;4.78;;
4466;SDS011;2246;42.664;23.278;2023-04-15T01:24:30;9.35;;;4.75;;
4466;SDS011;2246;42.664;23.278;2023-04-15T01:26:59;9.25;;;4.45;;
4466;SDS011;2246;42.664;23.278;2023-04-15T01:29:26;13.90;;;4.55;;
4466;SDS011;2246;42.664;23.278;2023-04-15T01:31:53;8.77;;;5.13;;
4466;SDS011;2246;42.664;23.278;2023-04-15T01:34:19;11.02;;;5.05;;
4466;SDS011;2246;42.664;23.278;2023-04-15T01:36:46;16.15;;;4.82;;
4466;SDS011;2246;42.664;23.278;2023-04-15T01:39:12;7.68;;;4.55;;
4466;SDS011;2246;42.664;23.278;2023-04-15T01:41:38;9.20;;;4.68;;
4466;SDS011;2246;42.664;23.278;2023-04-15T01:44:06;10.52;;;4.90;;
4466;SDS011;2246;42.664;23.278;2023-04-15T01:46:32;8.60;;;4.45;;
4466;SDS011;2246;42.664;23.278;2023-04-15T01:48:58;9.77;;;4.75;;
4466;SDS011;2246;42.664;23.278;2023-04-15T01:51:24;14.20;;;4.15;;
4466;SDS011;2246;42.664;23.278;2023-04-15T01:53:51;9.55;;;3.92;;
4466;SDS011;2246;42.664;23.278;2023-04-15T01:56:17;8.48;;;3.92;;
4466;SDS011;2246;42.664;23.278;2023-04-15T01:58:43;11.60;;;3.63;;
4466;SDS011;2246;42.664;23.278;2023-04-15T02:01:10;8.25;;;3.28;;
4466;SDS011;2246;42.664;23.278;2023-04-15T02:03:37;7.07;;;3.35;;
4466;SDS011;2246;42.664;23.278;2023-04-15T02:06:03;7.30;;;3.75;;
4466;SDS011;2246;42.664;23.278;2023-04-15T02:08:30;5.18;;;2.90;;
4466;SDS011;2246;42.664;23.278;2023-04-15T02:10:56;7.28;;;2.90;;
4466;SDS011;2246;42.664;23.278;2023-04-15T02:13:22;8.95;;;3.50;;
4466;SDS011;2246;42.664;23.278;2023-04-15T02:15:48;5.68;;;3.38;;
4466;SDS011;2246;42.664;23.278;2023-04-15T02:18:16;6.38;;;2.72;;
4466;SDS011;2246;42.664;23.278;2023-04-15T02:20:42;7.70;;;3.13;;
4466;SDS011;2246;42.664;23.278;2023-04-15T02:23:11;7.03;;;3.42;;
4466;SDS011;2246;42.664;23.278;2023-04-15T02:25:37;5.95;;;3.35;;
4466;SDS011;2246;42.664;23.278;2023-04-15T02:28:04;6.68;;;3.15;;
4466;SDS011;2246;42.664;23.278;2023-04-15T02:30:30;5.93;;;2.97;;
4466;SDS011;2246;42.664;23.278;2023-04-15T02:32:57;8.85;;;2.97;;
4466;SDS011;2246;42.664;23.278;2023-04-15T02:35:23;40.80;;;15.40;;
4466;SDS011;2246;42.664;23.278;2023-04-15T02:37:49;8.65;;;4.10;;
4466;SDS011;2246;42.664;23.278;2023-04-15T02:40:16;6.82;;;3.03;;
4466;SDS011;2246;42.664;23.278;2023-04-15T02:42:42;5.80;;;2.78;;
4466;SDS011;2246;42.664;23.278;2023-04-15T02:45:09;23.25;;;10.88;;
4466;SDS011;2246;42.664;23.278;2023-04-15T02:47:36;11.77;;;4.90;;
4466;SDS011;2246;42.664;23.278;2023-04-15T02:50:06;8.00;;;3.85;;
4466;SDS011;2246;42.664;23.278;2023-04-15T02:52:33;6.22;;;3.17;;
4466;SDS011;2246;42.664;23.278;2023-04-15T02:54:59;7.30;;;3.20;;
4466;SDS011;2246;42.664;23.278;2023-04-15T02:57:26;11.40;;;2.85;;
4466;SDS011;2246;42.664;23.278;2023-04-15T02:59:56;5.75;;;2.70;;
4466;SDS011;2246;42.664;23.278;2023-04-15T03:02:22;8.07;;;3.30;;
4466;SDS011;2246;42.664;23.278;2023-04-15T03:04:48;5.97;;;3.17;;
4466;SDS011;2246;42.664;23.278;2023-04-15T03:07:14;9.18;;;3.75;;
4466;SDS011;2246;42.664;23.278;2023-04-15T03:09:40;12.23;;;4.88;;
4466;SDS011;2246;42.664;23.278;2023-04-15T03:12:06;10.25;;;5.07;;
4466;SDS011;2246;42.664;23.278;2023-04-15T03:14:32;13.90;;;5.10;;
4466;SDS011;2246;42.664;23.278;2023-04-15T03:16:58;11.27;;;4.53;;
4466;SDS011;2246;42.664;23.278;2023-04-15T03:19:24;10.85;;;5.43;;
4466;SDS011;2246;42.664;23.278;2023-04-15T03:21:50;14.27;;;4.65;;
4466;SDS011;2246;42.664;23.278;2023-04-15T03:24:17;8.40;;;4.43;;
4466;SDS011;2246;42.664;23.278;2023-04-15T03:26:43;51.72;;;18.23;;
4466;SDS011;2246;42.664;23.278;2023-04-15T03:29:09;14.65;;;6.45;;
4466;SDS011;2246;42.664;23.278;2023-04-15T03:31:35;10.52;;;4.68;;
4466;SDS011;2246;42.664;23.278;2023-04-15T03:34:01;9.77;;;4.30;;
4466;SDS011;2246;42.664;23.278;2023-04-15T03:36:28;11.77;;;5.00;;
4466;SDS011;2246;42.664;23.278;2023-04-15T03:38:56;13.40;;;5.43;;
4466;SDS011;2246;42.664;23.278;2023-04-15T03:41:22;11.55;;;4.57;;
4466;SDS011;2246;42.664;23.278;2023-04-15T03:43:48;10.18;;;4.72;;
4466;SDS011;2246;42.664;23.278;2023-04-15T03:46:16;15.85;;;5.88;;
4466;SDS011;2246;42.664;23.278;2023-04-15T03:48:42;11.20;;;5.00;;
4466;SDS011;2246;42.664;23.278;2023-04-15T03:51:08;13.77;;;5.00;;
4466;SDS011;2246;42.664;23.278;2023-04-15T03:53:34;10.35;;;5.30;;
4466;SDS011;2246;42.664;23.278;2023-04-15T03:56:00;10.88;;;5.20;;
4466;SDS011;2246;42.664;23.278;2023-04-15T03:58:26;19.02;;;6.80;;
4466;SDS011;2246;42.664;23.278;2023-04-15T04:00:52;11.35;;;5.35;;
4466;SDS011;2246;42.664;23.278;2023-04-15T04:03:19;17.40;;;7.88;;
4466;SDS011;2246;42.664;23.278;2023-04-15T04:05:45;16.63;;;7.25;;
4466;SDS011;2246;42.664;23.278;2023-04-15T04:08:11;22.35;;;10.00;;
4466;SDS011;2246;42.664;23.278;2023-04-15T04:10:38;21.17;;;10.10;;
4466;SDS011;2246;42.664;23.278;2023-04-15T04:13:04;29.08;;;13.48;;
4466;SDS011;2246;42.664;23.278;2023-04-15T04:15:30;23.02;;;10.98;;
4466;SDS011;2246;42.664;23.278;2023-04-15T04:17:56;18.17;;;8.00;;
4466;SDS011;2246;42.664;23.278;2023-04-15T04:20:22;13.93;;;6.13;;
4466;SDS011;2246;42.664;23.278;2023-04-15T04:22:48;17.23;;;6.13;;
4466;SDS011;2246;42.664;23.278;2023-04-15T04:25:14;9.75;;;5.55;;
4466;SDS011;2246;42.664;23.278;2023-04-15T04:27:41;12.38;;;5.93;;
4466;SDS011;2246;42.664;23.278;2023-04-15T04:30:07;12.20;;;5.07;;
4466;SDS011;2246;42.664;23.278;2023-04-15T04:32:33;14.48;;;5.20;;
4466;SDS011;2246;42.664;23.278;2023-04-15T04:34:59;11.55;;;5.75;;
4466;SDS011;2246;42.664;23.278;2023-04-15T04:37:25;12.15;;;5.68;;
4466;SDS011;2246;42.664;23.278;2023-04-15T04:39:51;11.88;;;5.97;;
4466;SDS011;2246;42.664;23.278;2023-04-15T04:42:17;11.18;;;5.63;;
4466;SDS011;2246;42.664;23.278;2023-04-15T04:44:43;13.43;;;6.07;;
4466;SDS011;2246;42.664;23.278;2023-04-15T04:47:10;11.52;;;6.20;;
4466;SDS011;2246;42.664;23.278;2023-04-15T04:49:36;10.13;;;5.22;;
4466;SDS011;2246;42.664;23.278;2023-04-15T04:52:02;15.80;;;6.22;;
4466;SDS011;2246;42.664;23.278;2023-04-15T04:54:28;9.93;;;5.15;;
4466;SDS011;2246;42.664;23.278;2023-04-15T04:56:55;12.38;;;5.95;;
4466;SDS011;2246;42.664;23.278;2023-04-15T04:59:22;12.82;;;6.18;;
4466;SDS011;2246;42.664;23.278;2023-04-15T05:01:48;13.82;;;5.50;;
4466;SDS011;2246;42.664;23.278;2023-04-15T05:04:14;10.50;;;6.05;;
4466;SDS011;2246;42.664;23.278;2023-04-15T05:06:40;11.05;;;5.93;;
4466;SDS011;2246;42.664;23.278;2023-04-15T05:09:06;9.77;;;4.93;;
4466;SDS011;2246;42.664;23.278;2023-04-15T05:11:32;11.98;;;7.07;;
4466;SDS011;2246;42.664;23.278;2023-04-15T05:13:58;21.05;;;11.32;;
4466;SDS011;2246;42.664;23.278;2023-04-15T05:16:26;26.13;;;13.52;;
4466;SDS011;2246;42.664;23.278;2023-04-15T05:18:52;25.92;;;14.60;;
4466;SDS011;2246;42.664;23.278;2023-04-15T05:21:18;26.23;;;15.02;;
4466;SDS011;2246;42.664;23.278;2023-04-15T05:23:44;26.05;;;14.15;;
4466;SDS011;2246;42.664;23.278;2023-04-15T05:26:11;23.10;;;12.77;;
4466;SDS011;2246;42.664;23.278;2023-04-15T05:28:37;20.27;;;8.30;;
4466;SDS011;2246;42.664;23.278;2023-04-15T05:31:03;13.77;;;7.72;;
4466;SDS011;2246;42.664;23.278;2023-04-15T05:33:29;14.75;;;7.30;;
4466;SDS011;2246;42.664;23.278;2023-04-15T05:35:55;13.93;;;6.80;;
4466;SDS011;2246;42.664;23.278;2023-04-15T05:38:21;10.63;;;6.28;;
4466;SDS011;2246;42.664;23.278;2023-04-15T05:40:47;11.85;;;5.97;;
4466;SDS011;2246;42.664;23.278;2023-04-15T05:43:13;12.70;;;7.05;;
4466;SDS011;2246;42.664;23.278;2023-04-15T05:45:39;13.48;;;5.88;;
4466;SDS011;2246;42.664;23.278;2023-04-15T05:48:05;9.27;;;5.75;;
4466;SDS011;2246;42.664;23.278;2023-04-15T05:50:32;12.15;;;5.60;;
4466;SDS011;2246;42.664;23.278;2023-04-15T05:52:58;13.23;;;5.82;;
4466;SDS011;2246;42.664;23.278;2023-04-15T05:55:24;11.77;;;5.97;;
4466;SDS011;2246;42.664;23.278;2023-04-15T05:57:51;12.27;;;6.13;;
4466;SDS011;2246;42.664;23.278;2023-04-15T06:00:17;9.10;;;5.53;;
4466;SDS011;2246;42.664;23.278;2023-04-15T06:02:44;11.75;;;6.07;;
4466;SDS011;2246;42.664;23.278;2023-04-15T06:05:10;12.40;;;5.85;;
4466;SDS011;2246;42.664;23.278;2023-04-15T06:07:36;11.57;;;6.15;;
4466;SDS011;2246;42.664;23.278;2023-04-15T06:10:03;14.43;;;6.10;;
4466;SDS011;2246;42.664;23.278;2023-04-15T06:12:29;11.80;;;5.80;;
4466;SDS011;2246;42.664;23.278;2023-04-15T06:14:56;7.30;;;4.43;;
4466;SDS011;2246;42.664;23.278;2023-04-15T06:17:22;12.25;;;5.72;;
4466;SDS011;2246;42.664;23.278;2023-04-15T06:19:48;9.82;;;5.10;;
4466;SDS011;2246;42.664;23.278;2023-04-15T06:22:19;13.50;;;4.78;;
4466;SDS011;2246;42.664;23.278;2023-04-15T06:24:45;12.65;;;5.00;;
4466;SDS011;2246;42.664;23.278;2023-04-15T06:27:12;14.43;;;5.55;;
4466;SDS011;2246;42.664;23.278;2023-04-15T06:29:38;12.15;;;5.68;;
4466;SDS011;2246;42.664;23.278;2023-04-15T06:32:04;12.07;;;5.43;;
4466;SDS011;2246;42.664;23.278;2023-04-15T06:34:30;12.73;;;4.38;;
4466;SDS011;2246;42.664;23.278;2023-04-15T06:36:56;8.55;;;4.68;;
4466;SDS011;2246;42.664;23.278;2023-04-15T06:39:22;11.77;;;5.13;;
4466;SDS011;2246;42.664;23.278;2023-04-15T06:41:48;12.52;;;5.20;;
4466;SDS011;2246;42.664;23.278;2023-04-15T06:44:14;9.70;;;4.82;;
4466;SDS011;2246;42.664;23.278;2023-04-15T06:46:41;13.10;;;5.32;;
4466;SDS011;2246;42.664;23.278;2023-04-15T06:49:07;12.73;;;5.20;;
4466;SDS011;2246;42.664;23.278;2023-04-15T06:51:33;10.90;;;5.38;;
4466;SDS011;2246;42.664;23.278;2023-04-15T06:54:00;16.27;;;5.13;;
4466;SDS011;2246;42.664;23.278;2023-04-15T06:56:26;12.05;;;5.20;;
4466;SDS011;2246;42.664;23.278;2023-04-15T06:58:52;13.25;;;5.32;;
4466;SDS011;2246;42.664;23.278;2023-04-15T07:01:18;10.90;;;5.53;;
4466;SDS011;2246;42.664;23.278;2023-04-15T07:03:45;9.80;;;5.15;;
4466;SDS011;2246;42.664;23.278;2023-04-15T07:06:11;11.15;;;4.90;;
4466;SDS011;2246;42.664;23.278;2023-04-15T07:08:38;10.73;;;5.25;;
4466;SDS011;2246;42.664;23.278;2023-04-15T07:11:04;10.77;;;4.90;;
4466;SDS011;2246;42.664;23.278;2023-04-15T07:13:31;11.18;;;4.80;;
4466;SDS011;2246;42.664;23.278;2023-04-15T07:15:57;11.20;;;4.63;;
4466;SDS011;2246;42.664;23.278;2023-04-15T07:18:23;11.38;;;4.68;;
4466;SDS011;2246;42.664;23.278;2023-04-15T07:20:49;9.60;;;4.47;;
4466;SDS011;2246;42.664;23.278;2023-04-15T07:23:15;10.00;;;4.43;;
4466;SDS011;2246;42.664;23.278;2023-04-15T07:25:42;10.23;;;4.55;;
4466;SDS011;2246;42.664;23.278;2023-04-15T07:28:08;10.32;;;4.82;;
4466;SDS011;2246;42.664;23.278;2023-04-15T07:30:34;8.32;;;4.30;;
4466;SDS011;2246;42.664;23.278;2023-04-15T07:33:00;10.40;;;5.10;;
4466;SDS011;2246;42.664;23.278;2023-04-15T07:35:27;8.48;;;4.03;;
4466;SDS011;2246;42.664;23.278;2023-04-15T07:37:53;7.72;;;3.75;;
4466;SDS011;2246;42.664;23.278;2023-04-15T07:40:20;10.75;;;3.90;;
4466;SDS011;2246;42.664;23.278;2023-04-15T07:42:46;7.00;;;3.78;;
4466;SDS011;2246;42.664;23.278;2023-04-15T07:45:13;7.55;;;3.80;;
4466;SDS011;2246;42.664;23.278;2023-04-15T07:47:39;7.45;;;3.35;;
4466;SDS011;2246;42.664;23.278;2023-04-15T07:50:06;7.97;;;3.05;;
4466;SDS011;2246;42.664;23.278;2023-04-15T07:52:33;11.23;;;3.53;;
4466;SDS011;2246;42.664;23.278;2023-04-15T07:55:03;10.07;;;3.40;;
4466;SDS011;2246;42.664;23.278;2023-04-15T07:59:57;9.13;;;3.67;;
4466;SDS011;2246;42.664;23.278;2023-04-15T08:02:23;6.75;;;3.35;;
4466;SDS011;2246;42.664;23.278;2023-04-15T08:04:49;11.73;;;5.13;;
4466;SDS011;2246;42.664;23.278;2023-04-15T08:07:17;7.60;;;2.47;;
4466;SDS011;2246;42.664;23.278;2023-04-15T08:09:43;4.57;;;2.70;;
4466;SDS011;2246;42.664;23.278;2023-04-15T08:12:09;7.85;;;3.00;;
4466;SDS011;2246;42.664;23.278;2023-04-15T08:14:37;5.85;;;2.28;;
4466;SDS011;2246;42.664;23.278;2023-04-15T08:17:03;6.32;;;2.58;;
4466;SDS011;2246;42.664;23.278;2023-04-15T08:19:29;6.43;;;3.10;;
4466;SDS011;2246;42.664;23.278;2023-04-15T08:21:56;11.90;;;3.60;;
4466;SDS011;2246;42.664;23.278;2023-04-15T08:24:23;10.02;;;3.13;;
4466;SDS011;2246;42.664;23.278;2023-04-15T08:26:50;4.80;;;2.10;;
4466;SDS011;2246;42.664;23.278;2023-04-15T08:29:16;4.38;;;2.55;;
4466;SDS011;2246;42.664;23.278;2023-04-15T08:31:42;8.10;;;2.45;;
4466;SDS011;2246;42.664;23.278;2023-04-15T08:34:10;3.85;;;1.60;;
4466;SDS011;2246;42.664;23.278;2023-04-15T08:36:36;4.13;;;1.65;;
4466;SDS011;2246;42.664;23.278;2023-04-15T08:39:02;6.18;;;1.90;;
4466;SDS011;2246;42.664;23.278;2023-04-15T08:41:30;3.63;;;1.75;;
4466;SDS011;2246;42.664;23.278;2023-04-15T08:44:03;4.10;;;1.77;;
4466;SDS011;2246;42.664;23.278;2023-04-15T08:46:32;3.65;;;1.40;;
4466;SDS011;2246;42.664;23.278;2023-04-15T08:49:04;5.28;;;0.88;;
4466;SDS011;2246;42.664;23.278;2023-04-15T08:51:31;4.90;;;1.20;;
4466;SDS011;2246;42.664;23.278;2023-04-15T08:53:57;0.93;;;0.60;;
4466;SDS011;2246;42.664;23.278;2023-04-15T08:56:24;3.67;;;1.15;;
4466;SDS011;2246;42.664;23.278;2023-04-15T08:58:51;1.52;;;0.73;;
4466;SDS011;2246;42.664;23.278;2023-04-15T09:01:17;2.28;;;0.90;;
4466;SDS011;2246;42.664;23.278;2023-04-15T09:03:43;1.08;;;0.60;;
4466;SDS011;2246;42.664;23.278;2023-04-15T09:06:09;1.60;;;0.77;;
4466;SDS011;2246;42.664;23.278;2023-04-15T09:08:36;2.47;;;0.80;;
4466;SDS011;2246;42.664;23.278;2023-04-15T09:11:02;2.00;;;0.75;;
4466;SDS011;2246;42.664;23.278;2023-04-15T09:13:29;3.88;;;1.63;;
4466;SDS011;2246;42.664;23.278;2023-04-15T09:15:55;2.17;;;0.95;;
4466;SDS011;2246;42.664;23.278;2023-04-15T09:18:29;1.38;;;0.70;;
4466;SDS011;2246;42.664;23.278;2023-04-15T09:20:55;8.77;;;2.95;;
4466;SDS011;2246;42.664;23.278;2023-04-15T09:23:29;3.40;;;0.70;;
4466;SDS011;2246;42.664;23.278;2023-04-15T09:25:56;1.92;;;0.70;;
4466;SDS011;2246;42.664;23.278;2023-04-15T09:28:23;2.30;;;0.77;;
4466;SDS011;2246;42.664;23.278;2023-04-15T09:33:16;1.00;;;0.68;;
4466;SDS011;2246;42.664;23.278;2023-04-15T09:35:45;3.50;;;1.83;;
4466;SDS011;2246;42.664;23.278;2023-04-15T09:38:20;3.60;;;0.57;;
4466;SDS011;2246;42.664;23.278;2023-04-15T09:40:46;4.93;;;2.05;;
4466;SDS011;2246;42.664;23.278;2023-04-15T09:43:12;3.40;;;1.02;;
4466;SDS011;2246;42.664;23.278;2023-04-15T09:50:42;1.02;;;0.60;;
4466;SDS011;2246;42.664;23.278;2023-04-15T09:53:09;2.08;;;0.70;;
4466;SDS011;2246;42.664;23.278;2023-04-15T09:55:37;0.65;;;0.60;;
4466;SDS011;2246;42.664;23.278;2023-04-15T09:58:16;2.38;;;1.05;;
4466;SDS011;2246;42.664;23.278;2023-04-15T10:00:42;3.33;;;0.90;;
4466;SDS011;2246;42.664;23.278;2023-04-15T10:03:10;5.25;;;1.00;;
4466;SDS011;2246;42.664;23.278;2023-04-15T10:05:37;0.77;;;0.50;;
4466;SDS011;2246;42.664;23.278;2023-04-15T10:08:03;2.22;;;0.50;;
4466;SDS011;2246;42.664;23.278;2023-04-15T10:10:30;1.95;;;1.00;;
4466;SDS011;2246;42.664;23.278;2023-04-15T10:12:57;5.82;;;0.60;;
4466;SDS011;2246;42.664;23.278;2023-04-15T10:15:23;2.50;;;1.02;;
4466;SDS011;2246;42.664;23.278;2023-04-15T10:17:50;1.98;;;1.00;;
4466;SDS011;2246;42.664;23.278;2023-04-15T10:22:44;2.08;;;1.10;;
4466;SDS011;2246;42.664;23.278;2023-04-15T10:25:10;2.70;;;0.90;;
4466;SDS011;2246;42.664;23.278;2023-04-15T10:27:38;3.72;;;1.50;;
4466;SDS011;2246;42.664;23.278;2023-04-15T10:30:06;4.75;;;1.08;;
4466;SDS011;2246;42.664;23.278;2023-04-15T10:32:33;3.53;;;1.00;;
4466;SDS011;2246;42.664;23.278;2023-04-15T10:34:59;6.55;;;1.08;;
4466;SDS011;2246;42.664;23.278;2023-04-15T10:37:33;1.63;;;0.80;;
4466;SDS011;2246;42.664;23.278;2023-04-15T10:39:59;4.10;;;1.13;;
4466;SDS011;2246;42.664;23.278;2023-04-15T10:42:32;2.42;;;0.93;;
4466;SDS011;2246;42.664;23.278;2023-04-15T10:44:59;2.45;;;1.00;;
4466;SDS011;2246;42.664;23.278;2023-04-15T10:47:25;3.92;;;0.80;;
4466;SDS011;2246;42.664;23.278;2023-04-15T10:49:54;1.85;;;0.80;;
4466;SDS011;2246;42.664;23.278;2023-04-15T10:52:22;1.48;;;0.80;;
4466;SDS011;2246;42.664;23.278;2023-04-15T10:54:49;3.95;;;1.10;;
4466;SDS011;2246;42.664;23.278;2023-04-15T10:57:16;4.22;;;0.77;;
4466;SDS011;2246;42.664;23.278;2023-04-15T11:02:25;0.98;;;0.70;;
4466;SDS011;2246;42.664;23.278;2023-04-15T11:05:03;3.10;;;1.45;;
4466;SDS011;2246;42.664;23.278;2023-04-15T11:10:01;3.70;;;1.08;;
4466;SDS011;2246;42.664;23.278;2023-04-15T11:12:35;2.85;;;0.82;;
4466;SDS011;2246;42.664;23.278;2023-04-15T11:17:46;4.22;;;1.45;;
4466;SDS011;2246;42.664;23.278;2023-04-15T11:20:15;3.95;;;1.33;;
4466;SDS011;2246;42.664;23.278;2023-04-15T11:22:49;8.15;;;1.45;;
4466;SDS011;2246;42.664;23.278;2023-04-15T11:25:21;6.25;;;1.20;;
4466;SDS011;2246;42.664;23.278;2023-04-15T11:27:47;7.35;;;1.80;;
4466;SDS011;2246;42.664;23.278;2023-04-15T11:30:17;2.53;;;1.00;;
4466;SDS011;2246;42.664;23.278;2023-04-15T11:32:45;4.30;;;0.90;;
4466;SDS011;2246;42.664;23.278;2023-04-15T11:35:11;3.58;;;1.00;;
4466;SDS011;2246;42.664;23.278;2023-04-15T11:37:37;2.35;;;0.90;;
4466;SDS011;2246;42.664;23.278;2023-04-15T11:40:03;4.97;;;2.00;;
4466;SDS011;2246;42.664;23.278;2023-04-15T11:42:30;4.18;;;1.17;;
4466;SDS011;2246;42.664;23.278;2023-04-15T11:45:06;3.35;;;1.20;;
4466;SDS011;2246;42.664;23.278;2023-04-15T11:47:33;3.08;;;1.40;;
4466;SDS011;2246;42.664;23.278;2023-04-15T11:50:12;3.75;;;1.20;;
4466;SDS011;2246;42.664;23.278;2023-04-15T11:52:38;3.33;;;1.25;;
4466;SDS011;2246;42.664;23.278;2023-04-15T11:55:06;2.33;;;1.00;;
4466;SDS011;2246;42.664;23.278;2023-04-15T11:59:58;6.10;;;1.27;;
4466;SDS011;2246;42.664;23.278;2023-04-15T12:02:30;4.75;;;1.13;;
4466;SDS011;2246;42.664;23.278;2023-04-15T12:05:03;2.10;;;1.10;;
4466;SDS011;2246;42.664;23.278;2023-04-15T12:07:29;4.82;;;1.08;;
4466;SDS011;2246;42.664;23.278;2023-04-15T12:09:55;2.03;;;0.82;;
4466;SDS011;2246;42.664;23.278;2023-04-15T12:12:25;1.58;;;1.02;;
4466;SDS011;2246;42.664;23.278;2023-04-15T12:14:52;2.28;;;0.80;;
4466;SDS011;2246;42.664;23.278;2023-04-15T12:17:18;1.15;;;0.70;;
4466;SDS011;2246;42.664;23.278;2023-04-15T12:19:45;1.95;;;0.90;;
4466;SDS011;2246;42.664;23.278;2023-04-15T12:22:13;5.10;;;1.10;;
4466;SDS011;2246;42.664;23.278;2023-04-15T12:24:39;2.22;;;0.90;;
4466;SDS011;2246;42.664;23.278;2023-04-15T12:27:09;3.45;;;1.33;;
4466;SDS011;2246;42.664;23.278;2023-04-15T12:32:09;3.47;;;1.00;;
4466;SDS011;2246;42.664;23.278;2023-04-15T12:37:04;1.38;;;0.70;;
4466;SDS011;2246;42.664;23.278;2023-04-15T12:39:33;2.70;;;0.90;;
4466;SDS011;2246;42.664;23.278;2023-04-15T12:41:59;1.80;;;0.90;;
4466;SDS011;2246;42.664;23.278;2023-04-15T12:44:26;4.38;;;0.93;;
4466;SDS011;2246;42.664;23.278;2023-04-15T12:46:52;2.63;;;1.13;;
4466;SDS011;2246;42.664;23.278;2023-04-15T12:49:22;3.45;;;1.52;;
4466;SDS011;2246;42.664;23.278;2023-04-15T12:51:48;2.97;;;0.90;;
4466;SDS011;2246;42.664;23.278;2023-04-15T12:54:15;4.03;;;0.77;;
4466;SDS011;2246;42.664;23.278;2023-04-15T12:56:41;2.40;;;1.02;;
4466;SDS011;2246;42.664;23.278;2023-04-15T12:59:08;2.15;;;0.60;;
4466;SDS011;2246;42.664;23.278;2023-04-15T13:01:34;4.93;;;1.73;;
4466;SDS011;2246;42.664;23.278;2023-04-15T13:04:00;4.50;;;1.40;;
4466;SDS011;2246;42.664;23.278;2023-04-15T13:06:26;1.40;;;0.73;;
4466;SDS011;2246;42.664;23.278;2023-04-15T13:08:53;1.90;;;0.70;;
4466;SDS011;2246;42.664;23.278;2023-04-15T13:11:20;2.25;;;0.70;;
4466;SDS011;2246;42.664;23.278;2023-04-15T13:13:47;1.77;;;0.80;;
4466;SDS011;2246;42.664;23.278;2023-04-15T13:16:13;4.35;;;0.82;;
4466;SDS011;2246;42.664;23.278;2023-04-15T13:18:39;2.22;;;0.70;;
4466;SDS011;2246;42.664;23.278;2023-04-15T13:21:05;3.65;;;0.90;;
4466;SDS011;2246;42.664;23.278;2023-04-15T13:23:32;2.97;;;0.70;;
4466;SDS011;2246;42.664;23.278;2023-04-15T13:25:58;2.33;;;0.80;;
4466;SDS011;2246;42.664;23.278;2023-04-15T13:28:24;1.00;;;0.70;;
4466;SDS011;2246;42.664;23.278;2023-04-15T13:30:51;1.00;;;0.80;;
4466;SDS011;2246;42.664;23.278;2023-04-15T13:33:17;1.80;;;0.90;;
4466;SDS011;2246;42.664;23.278;2023-04-15T13:35:43;4.85;;;0.90;;
4466;SDS011;2246;42.664;23.278;2023-04-15T13:38:09;2.22;;;0.70;;
4466;SDS011;2246;42.664;23.278;2023-04-15T13:40:35;2.22;;;1.00;;
4466;SDS011;2246;42.664;23.278;2023-04-15T13:43:01;9.02;;;1.15;;
4466;SDS011;2246;42.664;23.278;2023-04-15T13:45:28;1.10;;;0.70;;
4466;SDS011;2246;42.664;23.278;2023-04-15T13:47:54;1.52;;;0.70;;
4466;SDS011;2246;42.664;23.278;2023-04-15T13:50:21;2.97;;;0.97;;
4466;SDS011;2246;42.664;23.278;2023-04-15T13:52:47;2.05;;;0.80;;
4466;SDS011;2246;42.664;23.278;2023-04-15T13:55:13;2.55;;;0.85;;
4466;SDS011;2246;42.664;23.278;2023-04-15T13:57:39;6.18;;;1.40;;
4466;SDS011;2246;42.664;23.278;2023-04-15T14:00:05;7.00;;;1.10;;
4466;SDS011;2246;42.664;23.278;2023-04-15T14:02:31;3.40;;;0.70;;
4466;SDS011;2246;42.664;23.278;2023-04-15T14:04:57;2.10;;;0.77;;
4466;SDS011;2246;42.664;23.278;2023-04-15T14:07:23;0.98;;;0.60;;
4466;SDS011;2246;42.664;23.278;2023-04-15T14:09:50;1.83;;;0.73;;
4466;SDS011;2246;42.664;23.278;2023-04-15T14:12:16;3.00;;;0.80;;
4466;SDS011;2246;42.664;23.278;2023-04-15T14:14:42;3.75;;;0.88;;
4466;SDS011;2246;42.664;23.278;2023-04-15T14:17:08;1.92;;;0.70;;
4466;SDS011;2246;42.664;23.278;2023-04-15T14:19:34;3.35;;;0.70;;
4466;SDS011;2246;42.664;23.278;2023-04-15T14:22:00;2.33;;;0.60;;
4466;SDS011;2246;42.664;23.278;2023-04-15T14:24:27;2.72;;;0.93;;
4466;SDS011;2246;42.664;23.278;2023-04-15T14:26:53;2.13;;;0.80;;
4466;SDS011;2246;42.664;23.278;2023-04-15T14:29:20;3.03;;;1.00;;
4466;SDS011;2246;42.664;23.278;2023-04-15T14:31:46;1.38;;;0.80;;
4466;SDS011;2246;42.664;23.278;2023-04-15T14:34:14;2.58;;;1.35;;
4466;SDS011;2246;42.664;23.278;2023-04-15T14:36:40;2.78;;;0.95;;
4466;SDS011;2246;42.664;23.278;2023-04-15T14:39:06;3.90;;;1.23;;
4466;SDS011;2246;42.664;23.278;2023-04-15T14:41:32;1.63;;;0.90;;
4466;SDS011;2246;42.664;23.278;2023-04-15T14:43:58;1.92;;;0.80;;
4466;SDS011;2246;42.664;23.278;2023-04-15T14:46:25;3.08;;;0.77;;
4466;SDS011;2246;42.664;23.278;2023-04-15T14:48:51;2.20;;;0.90;;
4466;SDS011;2246;42.664;23.278;2023-04-15T14:51:17;2.13;;;0.85;;
4466;SDS011;2246;42.664;23.278;2023-04-15T14:53:43;2.13;;;0.80;;
4466;SDS011;2246;42.664;23.278;2023-04-15T14:56:10;1.55;;;0.95;;
4466;SDS011;2246;42.664;23.278;2023-04-15T14:58:36;4.15;;;0.98;;
4466;SDS011;2246;42.664;23.278;2023-04-15T15:01:02;3.65;;;0.90;;
4466;SDS011;2246;42.664;23.278;2023-04-15T15:03:29;5.45;;;0.70;;
4466;SDS011;2246;42.664;23.278;2023-04-15T15:05:55;3.47;;;0.60;;
4466;SDS011;2246;42.664;23.278;2023-04-15T15:08:21;2.08;;;1.00;;
4466;SDS011;2246;42.664;23.278;2023-04-15T15:10:48;2.58;;;0.80;;
4466;SDS011;2246;42.664;23.278;2023-04-15T15:13:14;1.42;;;0.80;;
4466;SDS011;2246;42.664;23.278;2023-04-15T15:15:40;1.08;;;0.60;;
4466;SDS011;2246;42.664;23.278;2023-04-15T15:18:06;2.55;;;0.80;;
4466;SDS011;2246;42.664;23.278;2023-04-15T15:20:32;2.35;;;0.70;;
4466;SDS011;2246;42.664;23.278;2023-04-15T15:23:00;3.33;;;0.70;;